createdAt,value
2022-12-11T00:00:28.646Z,18.08
2022-12-11T00:01:30.224Z,18.42
2022-12-11T00:02:33.223Z,18.52
2022-12-11T00:03:34.973Z,18.17
2022-12-11T00:04:36.593Z,16.00
2022-12-11T00:05:39.724Z,21.23
2022-12-11T00:06:41.335Z,19.55
2022-12-11T00:07:45.841Z,20.27
2022-12-11T00:08:47.518Z,18.58
2022-12-11T00:09:49.128Z,18.27
2022-12-11T00:10:50.778Z,17.30
2022-12-11T00:11:52.495Z,15.13
2022-12-11T00:12:54.120Z,17.65
2022-12-11T00:13:55.666Z,17.73
2022-12-11T00:14:57.263Z,19.70
2022-12-11T00:15:59.387Z,20.92
2022-12-11T00:17:00.932Z,16.85
2022-12-11T00:18:03.920Z,22.25
2022-12-11T00:19:05.799Z,17.95
2022-12-11T00:20:08.444Z,23.25
2022-12-11T00:21:13.625Z,14.50
2022-12-11T00:22:15.227Z,19.98
2022-12-11T00:23:16.881Z,20.73
2022-12-11T00:24:18.464Z,18.73
2022-12-11T00:25:20.103Z,19.17
2022-12-11T00:26:21.762Z,17.35
2022-12-11T00:27:23.353Z,21.38
2022-12-11T00:28:24.981Z,20.90
2022-12-11T00:29:26.590Z,23.33
2022-12-11T00:30:28.167Z,18.83
2022-12-11T00:31:30.034Z,20.77
2022-12-11T00:32:36.159Z,17.80
2022-12-11T00:33:45.142Z,20.85
2022-12-11T00:34:46.726Z,18.48
2022-12-11T00:35:48.324Z,16.70
2022-12-11T00:36:49.866Z,20.83
2022-12-11T00:37:51.416Z,15.25
2022-12-11T00:38:54.076Z,19.33
2022-12-11T00:39:55.624Z,18.17
2022-12-11T00:40:58.529Z,18.20
2022-12-11T00:42:00.102Z,16.85
2022-12-11T00:43:01.869Z,17.73
2022-12-11T00:44:04.652Z,17.90
2022-12-11T00:45:07.414Z,16.55
2022-12-11T00:46:09.262Z,17.75
2022-12-11T00:47:10.907Z,18.25
2022-12-11T00:48:13.172Z,19.85
2022-12-11T00:49:17.034Z,18.25
2022-12-11T00:50:18.682Z,13.93
2022-12-11T00:51:20.255Z,17.38
2022-12-11T00:52:21.862Z,9.73
2022-12-11T00:53:23.521Z,16.30
2022-12-11T00:54:25.136Z,17.77
2022-12-11T00:55:26.750Z,16.95
2022-12-11T00:56:28.288Z,18.77
2022-12-11T00:57:29.895Z,20.00
2022-12-11T00:58:31.479Z,15.90
2022-12-11T00:59:33.055Z,16.98
2022-12-11T01:00:34.815Z,17.90
2022-12-11T01:01:36.556Z,17.33
2022-12-11T01:02:38.337Z,15.10
2022-12-11T01:03:40.009Z,12.15
2022-12-11T01:04:42.933Z,15.68
2022-12-11T01:05:51.492Z,16.45
2022-12-11T01:06:53.077Z,16.58
2022-12-11T01:07:54.916Z,16.90
2022-12-11T01:08:56.975Z,14.98
2022-12-11T01:09:58.569Z,16.95
2022-12-11T01:11:05.089Z,15.25
2022-12-11T01:12:06.935Z,14.52
2022-12-11T01:13:08.558Z,15.60
2022-12-11T01:14:19.211Z,19.08
2022-12-11T01:15:22.243Z,18.05
2022-12-11T01:16:23.845Z,17.00
2022-12-11T01:17:25.473Z,16.50
2022-12-11T01:18:27.823Z,11.48
2022-12-11T01:19:29.468Z,12.23
2022-12-11T01:20:32.943Z,12.43
2022-12-11T01:21:34.584Z,13.23
2022-12-11T01:22:36.171Z,11.73
2022-12-11T01:23:38.228Z,13.77
2022-12-11T01:24:39.793Z,13.45
2022-12-11T01:25:42.460Z,11.02
2022-12-11T01:26:44.127Z,13.75
2022-12-11T01:27:45.827Z,11.60
2022-12-11T01:28:49.896Z,12.40
2022-12-11T01:29:51.478Z,13.30
2022-12-11T01:30:53.094Z,12.35
2022-12-11T01:31:54.705Z,14.98
2022-12-11T01:32:56.307Z,14.15
2022-12-11T01:33:57.942Z,11.07
2022-12-11T01:34:59.548Z,13.30
2022-12-11T01:36:07.347Z,17.25
2022-12-11T01:37:08.974Z,18.55
2022-12-11T01:38:10.570Z,15.70
2022-12-11T01:39:12.120Z,15.98
2022-12-11T01:40:15.898Z,16.35
2022-12-11T01:41:18.189Z,13.05
2022-12-11T01:42:20.614Z,17.08
2022-12-11T01:43:22.193Z,14.93
2022-12-11T01:45:01.193Z,15.65
2022-12-11T01:46:02.957Z,15.90
2022-12-11T01:47:04.711Z,17.73
2022-12-11T01:48:10.898Z,16.95
2022-12-11T01:49:15.289Z,16.35
2022-12-11T01:50:17.479Z,16.52
2022-12-11T01:51:20.638Z,17.83
2022-12-11T01:52:22.653Z,17.08
2022-12-11T01:53:28.508Z,18.23
2022-12-11T01:54:30.591Z,20.90
2022-12-11T01:55:33.101Z,17.13
2022-12-11T01:56:36.315Z,17.83
2022-12-11T01:57:42.945Z,18.83
2022-12-11T01:58:48.842Z,18.05
2022-12-11T01:59:50.398Z,18.48
2022-12-11T02:00:53.132Z,17.73
2022-12-11T02:01:59.416Z,17.27
2022-12-11T02:03:00.908Z,17.80
2022-12-11T02:04:02.739Z,16.92
2022-12-11T02:05:06.340Z,18.73
2022-12-11T02:06:31.901Z,22.48
2022-12-11T02:07:38.816Z,16.90
2022-12-11T02:08:40.401Z,20.80
2022-12-11T02:09:44.990Z,17.52
2022-12-11T02:10:56.124Z,20.70
2022-12-11T02:12:19.867Z,17.80
2022-12-11T02:13:29.795Z,19.83
2022-12-11T02:14:43.692Z,17.67
2022-12-11T02:15:50.920Z,17.88
2022-12-11T02:16:59.676Z,18.80
2022-12-11T02:18:14.458Z,20.13
2022-12-11T02:19:30.757Z,19.05
2022-12-11T02:20:37.984Z,19.30
2022-12-11T02:21:46.143Z,20.80
2022-12-11T02:23:02.219Z,18.83
2022-12-11T02:24:32.123Z,21.83
2022-12-11T02:25:41.215Z,19.85
2022-12-11T02:27:00.288Z,18.10
2022-12-11T02:28:23.735Z,18.40
2022-12-11T02:29:32.305Z,21.35
2022-12-11T02:30:39.771Z,17.67
2022-12-11T02:31:46.767Z,18.02
2022-12-11T02:32:54.746Z,20.23
2022-12-11T02:34:01.856Z,17.08
2022-12-11T02:35:11.767Z,16.80
2022-12-11T02:36:16.136Z,17.52
2022-12-11T02:37:21.620Z,18.23
2022-12-11T02:38:28.599Z,16.88
2022-12-11T02:39:32.160Z,14.65
2022-12-11T02:40:37.344Z,19.33
2022-12-11T02:41:43.134Z,18.92
2022-12-11T02:42:48.108Z,16.58
2022-12-11T02:43:52.171Z,18.27
2022-12-11T02:44:55.589Z,21.02
2022-12-11T02:45:59.083Z,20.85
2022-12-11T02:47:02.828Z,16.70
2022-12-11T02:48:06.578Z,19.40
2022-12-11T02:49:10.144Z,17.52
2022-12-11T02:50:15.926Z,19.20
2022-12-11T02:51:22.012Z,17.25
2022-12-11T02:52:25.450Z,15.98
2022-12-11T02:53:32.337Z,13.45
2022-12-11T02:54:37.924Z,16.08
2022-12-11T02:55:41.822Z,14.20
2022-12-11T02:56:46.398Z,16.65
2022-12-11T02:57:51.485Z,16.52
2022-12-11T02:58:59.063Z,14.25
2022-12-11T03:00:00.681Z,12.27
2022-12-11T03:01:02.317Z,13.52
2022-12-11T03:02:04.647Z,13.95
2022-12-11T03:03:06.474Z,14.10
2022-12-11T03:04:08.244Z,14.63
2022-12-11T03:05:12.419Z,15.55
2022-12-11T03:06:17.827Z,15.98
2022-12-11T03:07:23.653Z,14.40
2022-12-11T03:08:25.276Z,16.33
2022-12-11T03:09:28.816Z,16.30
2022-12-11T03:10:30.385Z,16.35
2022-12-11T03:11:31.984Z,15.35
2022-12-11T03:12:36.864Z,17.17
2022-12-11T03:13:39.076Z,16.13
2022-12-11T03:14:42.797Z,14.50
2022-12-11T03:15:56.102Z,14.52
2022-12-11T03:17:13.678Z,15.23
2022-12-11T03:18:21.744Z,13.88
2022-12-11T03:19:31.902Z,16.90
2022-12-11T03:20:40.401Z,17.13
2022-12-11T03:21:46.714Z,14.65
2022-12-11T03:23:02.616Z,14.18
2022-12-11T03:24:10.066Z,13.35
2022-12-11T03:25:18.088Z,12.90
2022-12-11T03:26:20.961Z,14.38
2022-12-11T03:27:29.481Z,14.52
2022-12-11T03:28:39.401Z,15.77
2022-12-11T03:29:52.049Z,16.38
2022-12-11T03:30:54.519Z,15.02
2022-12-11T03:32:01.440Z,13.98
2022-12-11T03:33:06.334Z,12.40
2022-12-11T03:34:14.085Z,15.07
2022-12-11T03:35:20.171Z,13.48
2022-12-11T03:36:26.953Z,15.05
2022-12-11T03:37:33.393Z,11.05
2022-12-11T03:38:39.086Z,9.25
2022-12-11T03:39:46.219Z,8.82
2022-12-11T03:40:50.117Z,9.98
2022-12-11T03:41:53.334Z,9.52
2022-12-11T03:42:57.364Z,10.18
2022-12-11T03:43:59.236Z,7.95
2022-12-11T03:45:04.436Z,9.88
2022-12-11T03:46:09.430Z,10.80
2022-12-11T03:47:14.331Z,11.52
2022-12-11T03:48:17.730Z,12.13
2022-12-11T03:49:24.270Z,9.98
2022-12-11T03:50:30.588Z,10.10
2022-12-11T03:51:34.230Z,8.48
2022-12-11T03:52:42.419Z,9.38
2022-12-11T03:53:48.128Z,8.93
2022-12-11T03:54:50.889Z,10.18
2022-12-11T03:55:54.024Z,10.88
2022-12-11T03:56:57.952Z,9.93
2022-12-11T03:57:59.520Z,9.70
2022-12-11T03:59:01.054Z,10.95
2022-12-11T04:00:04.750Z,11.55
2022-12-11T04:01:08.758Z,11.55
2022-12-11T04:02:10.336Z,12.45
2022-12-11T04:03:13.835Z,9.55
2022-12-11T04:04:15.864Z,10.07
2022-12-11T04:05:17.579Z,9.55
2022-12-11T04:06:19.228Z,9.77
2022-12-11T04:07:20.799Z,12.48
2022-12-11T04:08:23.205Z,11.40
2022-12-11T04:09:24.797Z,11.77
2022-12-11T04:10:26.700Z,10.80
2022-12-11T04:11:28.236Z,8.18
2022-12-11T04:12:29.818Z,11.77
2022-12-11T04:13:31.355Z,10.70
2022-12-11T04:14:32.955Z,11.00
2022-12-11T04:15:37.001Z,12.40
2022-12-11T04:16:38.702Z,11.30
2022-12-11T04:17:40.236Z,11.50
2022-12-11T04:18:43.118Z,12.60
2022-12-11T04:19:44.631Z,12.02
2022-12-11T04:20:46.182Z,11.18
2022-12-11T04:21:47.741Z,11.88
2022-12-11T04:22:49.335Z,13.95
2022-12-11T04:23:51.045Z,13.45
2022-12-11T04:24:52.626Z,17.95
2022-12-11T04:25:54.157Z,18.55
2022-12-11T04:26:55.681Z,21.00
2022-12-11T04:27:57.221Z,18.80
2022-12-11T04:28:58.778Z,15.43
2022-12-11T04:30:00.324Z,14.75
2022-12-11T04:31:04.234Z,15.55
2022-12-11T04:32:05.974Z,20.73
2022-12-11T04:33:07.468Z,17.65
2022-12-11T04:34:09.249Z,17.67
2022-12-11T04:35:12.213Z,18.85
2022-12-11T04:36:14.781Z,17.02
2022-12-11T04:37:16.350Z,15.55
2022-12-11T04:38:17.955Z,15.20
2022-12-11T04:39:19.484Z,15.43
2022-12-11T04:40:21.509Z,15.73
2022-12-11T04:41:23.052Z,17.83
2022-12-11T04:42:24.621Z,12.23
2022-12-11T04:43:26.185Z,13.88
2022-12-11T04:44:27.735Z,14.18
2022-12-11T04:45:29.267Z,15.27
2022-12-11T04:46:32.236Z,16.58
2022-12-11T04:47:34.970Z,14.00
2022-12-11T04:48:37.721Z,14.27
2022-12-11T04:49:39.307Z,14.57
2022-12-11T04:50:40.831Z,15.02
2022-12-11T04:51:42.346Z,13.57
2022-12-11T04:52:45.498Z,13.85
2022-12-11T04:53:47.046Z,14.25
2022-12-11T04:54:48.724Z,11.82
2022-12-11T04:55:50.270Z,12.65
2022-12-11T04:56:51.833Z,13.13
2022-12-11T04:57:53.369Z,13.93
2022-12-11T04:58:54.897Z,13.65
2022-12-11T04:59:56.438Z,13.27
2022-12-11T05:00:58.000Z,12.80
2022-12-11T05:02:01.205Z,14.10
2022-12-11T05:03:08.283Z,13.40
2022-12-11T05:04:09.852Z,12.77
2022-12-11T05:05:11.785Z,16.02
2022-12-11T05:06:13.816Z,13.93
2022-12-11T05:07:15.337Z,16.88
2022-12-11T05:08:16.977Z,12.20
2022-12-11T05:09:23.548Z,11.48
2022-12-11T05:10:25.176Z,16.38
2022-12-11T05:11:26.675Z,12.82
2022-12-11T05:12:28.218Z,15.20
2022-12-11T05:13:30.344Z,16.42
2022-12-11T05:14:31.944Z,14.38
2022-12-11T05:15:33.509Z,15.27
2022-12-11T05:16:35.006Z,15.18
2022-12-11T05:17:37.868Z,13.32
2022-12-11T05:18:39.446Z,13.65
2022-12-11T05:19:41.084Z,15.18
2022-12-11T05:20:42.600Z,13.32
2022-12-11T05:21:44.139Z,15.73
2022-12-11T05:22:45.643Z,17.77
2022-12-11T05:23:47.228Z,17.98
2022-12-11T05:24:48.771Z,16.13
2022-12-11T05:25:53.529Z,15.23
2022-12-11T05:26:55.100Z,16.13
2022-12-11T05:27:56.637Z,14.13
2022-12-11T05:28:58.221Z,14.98
2022-12-11T05:29:59.864Z,14.32
2022-12-11T05:31:03.678Z,14.70
2022-12-11T05:32:05.464Z,15.15
2022-12-11T05:33:08.323Z,12.75
2022-12-11T05:34:09.850Z,13.20
2022-12-11T05:35:11.609Z,11.68
2022-12-11T05:36:16.468Z,11.65
2022-12-11T05:37:18.000Z,12.38
2022-12-11T05:38:20.078Z,12.70
2022-12-11T05:39:21.698Z,14.15
2022-12-11T05:40:23.212Z,12.88
2022-12-11T05:41:26.525Z,13.05
2022-12-11T05:42:30.880Z,12.00
2022-12-11T05:43:34.088Z,12.35
2022-12-11T05:44:35.686Z,15.68
2022-12-11T05:45:37.499Z,15.27
2022-12-11T05:46:39.606Z,15.55
2022-12-11T05:47:41.221Z,16.15
2022-12-11T05:48:45.931Z,14.80
2022-12-11T05:49:47.481Z,15.07
2022-12-11T05:50:57.596Z,15.15
2022-12-11T05:51:59.235Z,15.93
2022-12-11T05:53:00.728Z,16.73
2022-12-11T05:54:03.399Z,16.10
2022-12-11T05:55:05.648Z,14.27
2022-12-11T05:56:10.141Z,14.70
2022-12-11T05:57:11.675Z,16.08
2022-12-11T05:58:13.231Z,18.85
2022-12-11T05:59:14.743Z,15.93
2022-12-11T06:00:16.276Z,14.75
2022-12-11T06:01:19.500Z,14.27
2022-12-11T06:02:21.157Z,13.85
2022-12-11T06:03:22.813Z,16.90
2022-12-11T06:04:25.815Z,13.15
2022-12-11T06:05:27.309Z,16.08
2022-12-11T06:06:29.050Z,14.30
2022-12-11T06:07:30.600Z,12.63
2022-12-11T06:08:32.350Z,16.20
2022-12-11T06:09:33.846Z,16.52
2022-12-11T06:10:35.380Z,14.82
2022-12-11T06:11:36.911Z,14.15
2022-12-11T06:12:38.437Z,14.70
2022-12-11T06:13:40.353Z,17.85
2022-12-11T06:14:41.948Z,16.40
2022-12-11T06:15:43.450Z,15.32
2022-12-11T06:16:45.078Z,14.63
2022-12-11T06:17:46.720Z,20.30
2022-12-11T06:18:48.776Z,19.23
2022-12-11T06:19:51.626Z,18.50
2022-12-11T06:20:53.156Z,20.65
2022-12-11T06:21:54.736Z,20.75
2022-12-11T06:22:56.281Z,19.00
2022-12-11T06:24:00.148Z,20.25
2022-12-11T06:25:01.680Z,19.63
2022-12-11T06:26:03.713Z,18.40
2022-12-11T06:27:05.370Z,15.85
2022-12-11T06:28:06.983Z,16.17
2022-12-11T06:29:12.643Z,14.90
2022-12-11T06:30:14.632Z,13.25
2022-12-11T06:31:16.898Z,15.55
2022-12-11T06:32:18.529Z,13.02
2022-12-11T06:33:20.051Z,14.00
2022-12-11T06:34:21.587Z,13.38
2022-12-11T06:35:24.703Z,11.63
2022-12-11T06:36:26.261Z,11.93
2022-12-11T06:37:27.830Z,12.68
2022-12-11T06:38:29.355Z,13.10
2022-12-11T06:39:31.097Z,10.52
2022-12-11T06:40:32.666Z,13.38
2022-12-11T06:41:34.233Z,12.40
2022-12-11T06:42:35.979Z,13.23
2022-12-11T06:43:39.985Z,12.95
2022-12-11T06:44:41.703Z,13.77
2022-12-11T06:45:43.446Z,14.45
2022-12-11T06:46:45.079Z,12.15
2022-12-11T06:47:46.675Z,15.52
2022-12-11T06:48:50.721Z,14.05
2022-12-11T06:49:52.697Z,13.90
2022-12-11T06:50:55.580Z,11.88
2022-12-11T06:51:57.139Z,11.75
2022-12-11T06:52:58.720Z,13.50
2022-12-11T06:54:00.273Z,14.48
2022-12-11T06:55:01.835Z,15.27
2022-12-11T06:56:04.500Z,12.23
2022-12-11T06:57:06.088Z,13.23
2022-12-11T06:58:08.296Z,12.15
2022-12-11T06:59:11.385Z,13.00
2022-12-11T07:00:14.385Z,13.18
2022-12-11T07:01:18.377Z,12.88
2022-12-11T07:02:20.754Z,13.88
2022-12-11T07:03:22.463Z,14.05
2022-12-11T07:04:24.051Z,15.27
2022-12-11T07:05:25.686Z,17.98
2022-12-11T07:06:30.034Z,16.10
2022-12-11T07:07:40.394Z,14.52
2022-12-11T07:08:41.985Z,14.35
2022-12-11T07:09:43.515Z,13.05
2022-12-11T07:10:45.047Z,16.30
2022-12-11T07:11:49.120Z,15.20
2022-12-11T07:12:52.609Z,17.02
2022-12-11T07:13:54.129Z,13.10
2022-12-11T07:14:55.704Z,17.70
2022-12-11T07:15:58.341Z,16.92
2022-12-11T07:16:59.971Z,14.57
2022-12-11T07:18:01.523Z,13.98
2022-12-11T07:19:03.245Z,14.75
2022-12-11T07:20:05.744Z,13.70
2022-12-11T07:21:08.049Z,15.73
2022-12-11T07:22:10.933Z,13.50
2022-12-11T07:23:12.487Z,12.52
2022-12-11T07:24:14.059Z,13.30
2022-12-11T07:25:15.806Z,14.45
2022-12-11T07:26:19.355Z,15.88
2022-12-11T07:27:20.853Z,13.63
2022-12-11T07:28:22.550Z,13.77
2022-12-11T07:29:24.114Z,16.73
2022-12-11T07:30:25.620Z,16.23
2022-12-11T07:31:28.848Z,13.93
2022-12-11T07:32:30.538Z,14.70
2022-12-11T07:33:32.117Z,17.33
2022-12-11T07:34:33.664Z,14.38
2022-12-11T07:35:35.312Z,13.80
2022-12-11T07:36:36.834Z,15.52
2022-12-11T07:37:41.321Z,19.77
2022-12-11T07:38:42.835Z,16.83
2022-12-11T07:39:44.364Z,11.93
2022-12-11T07:40:45.902Z,15.13
2022-12-11T07:41:47.408Z,13.27
2022-12-11T07:42:48.994Z,14.27
2022-12-11T07:43:50.555Z,13.63
2022-12-11T07:44:52.071Z,14.27
2022-12-11T07:45:53.623Z,16.20
2022-12-11T07:46:55.180Z,13.60
2022-12-11T07:47:56.686Z,19.17
2022-12-11T07:48:58.289Z,22.73
2022-12-11T07:49:59.818Z,20.27
2022-12-11T07:51:08.529Z,22.70
2022-12-11T07:52:10.096Z,23.90
2022-12-11T07:53:12.975Z,18.48
2022-12-11T07:54:15.899Z,18.17
2022-12-11T07:55:17.467Z,12.15
2022-12-11T07:56:19.425Z,10.20
2022-12-11T07:57:21.000Z,12.77
2022-12-11T07:58:22.524Z,11.27
2022-12-11T07:59:24.022Z,11.40
2022-12-11T08:00:26.098Z,13.68
2022-12-11T08:01:30.044Z,12.82
2022-12-11T08:02:36.910Z,14.30
2022-12-11T08:03:39.071Z,10.55
2022-12-11T08:04:40.585Z,15.27
2022-12-11T08:05:47.899Z,10.10
2022-12-11T08:06:49.458Z,15.70
2022-12-11T08:07:51.041Z,12.65
2022-12-11T08:08:54.600Z,13.95
2022-12-11T08:09:56.121Z,11.10
2022-12-11T08:11:00.773Z,11.13
2022-12-11T08:12:02.310Z,11.75
2022-12-11T08:13:03.873Z,11.00
2022-12-11T08:14:05.874Z,11.32
2022-12-11T08:15:08.597Z,13.60
2022-12-11T08:16:12.364Z,12.20
2022-12-11T08:17:13.888Z,13.43
2022-12-11T08:18:15.438Z,14.73
2022-12-11T08:19:17.004Z,13.40
2022-12-11T08:20:18.578Z,15.07
2022-12-11T08:21:22.358Z,7.85
2022-12-11T08:22:23.904Z,8.93
2022-12-11T08:23:25.462Z,8.32
2022-12-11T08:24:28.331Z,14.35
2022-12-11T08:25:29.882Z,15.07
2022-12-11T08:26:31.584Z,16.05
2022-12-11T08:27:33.145Z,12.70
2022-12-11T08:28:35.136Z,14.45
2022-12-11T08:29:37.279Z,14.88
2022-12-11T08:30:39.253Z,15.10
2022-12-11T08:31:41.893Z,12.95
2022-12-11T08:32:43.461Z,15.85
2022-12-11T08:33:45.331Z,15.10
2022-12-11T08:34:46.816Z,15.38
2022-12-11T08:35:48.370Z,12.93
2022-12-11T08:36:49.931Z,14.57
2022-12-11T08:37:51.594Z,16.38
2022-12-11T08:38:54.986Z,13.32
2022-12-11T08:39:58.413Z,17.05
2022-12-11T08:41:08.555Z,13.35
2022-12-11T08:42:10.244Z,11.07
2022-12-11T08:43:11.786Z,16.45
2022-12-11T08:44:16.707Z,10.65
2022-12-11T08:45:18.589Z,14.70
2022-12-11T08:46:20.726Z,11.63
2022-12-11T08:47:22.279Z,12.32
2022-12-11T08:48:23.785Z,14.13
2022-12-11T08:49:27.592Z,9.82
2022-12-11T08:50:32.830Z,11.52
2022-12-11T08:51:34.372Z,13.48
2022-12-11T08:52:35.914Z,13.43
2022-12-11T08:53:37.529Z,10.73
2022-12-11T08:54:39.150Z,14.10
2022-12-11T08:55:42.023Z,13.00
2022-12-11T08:56:43.535Z,15.77
2022-12-11T08:57:45.110Z,16.75
2022-12-11T08:58:47.437Z,14.10
2022-12-11T08:59:49.069Z,6.65
2022-12-11T09:00:50.701Z,10.82
2022-12-11T09:01:52.389Z,11.43
2022-12-11T09:02:54.024Z,15.73
2022-12-11T09:03:56.623Z,14.98
2022-12-11T09:04:58.150Z,14.00
2022-12-11T09:05:59.786Z,12.93
2022-12-11T09:07:01.392Z,14.43
2022-12-11T09:08:03.020Z,16.15
2022-12-11T09:09:05.129Z,12.80
2022-12-11T09:10:08.517Z,12.70
2022-12-11T09:11:14.161Z,13.95
2022-12-11T09:12:15.683Z,13.65
2022-12-11T09:13:17.290Z,11.65
2022-12-11T09:14:18.871Z,9.90
2022-12-11T09:15:20.490Z,14.48
2022-12-11T09:16:24.188Z,14.68
2022-12-11T09:17:25.734Z,13.90
2022-12-11T09:20:30.257Z,11.52
2022-12-11T09:21:31.900Z,12.68
2022-12-11T09:22:33.564Z,13.02
2022-12-11T09:23:35.176Z,12.73
2022-12-11T09:24:36.765Z,19.15
2022-12-11T09:25:39.965Z,13.10
2022-12-11T09:26:42.907Z,14.18
2022-12-11T09:27:44.492Z,14.60
2022-12-11T09:28:47.273Z,13.77
2022-12-11T09:29:49.043Z,14.38
2022-12-11T09:30:51.149Z,13.27
2022-12-11T09:31:52.678Z,13.48
2022-12-11T09:32:54.192Z,13.23
2022-12-11T09:33:58.371Z,18.08
2022-12-11T09:34:59.869Z,12.20
2022-12-11T09:36:02.345Z,21.70
2022-12-11T09:37:03.858Z,14.77
2022-12-11T09:38:05.397Z,14.38
2022-12-11T09:39:08.715Z,11.90
2022-12-11T09:40:11.804Z,15.13
2022-12-11T09:41:29.464Z,16.40
2022-12-11T09:42:46.881Z,14.50
2022-12-11T09:43:58.102Z,12.52
2022-12-11T09:45:01.805Z,12.35
2022-12-11T09:46:06.975Z,14.00
2022-12-11T09:47:18.982Z,14.80
2022-12-11T09:48:24.014Z,16.67
2022-12-11T09:49:31.880Z,11.52
2022-12-11T09:50:34.799Z,12.75
2022-12-11T09:51:42.331Z,15.48
2022-12-11T09:52:54.487Z,11.45
2022-12-11T09:54:00.102Z,12.73
2022-12-11T09:55:10.088Z,12.38
2022-12-11T09:56:17.886Z,12.02
2022-12-11T09:57:43.543Z,13.95
2022-12-11T09:58:57.993Z,14.43
2022-12-11T10:00:16.136Z,12.75
2022-12-11T10:01:24.585Z,13.27
2022-12-11T10:02:41.004Z,12.45
2022-12-11T10:04:08.288Z,12.82
2022-12-11T10:05:17.656Z,11.35
2022-12-11T10:06:28.204Z,14.88
2022-12-11T10:07:36.030Z,14.60
2022-12-11T10:08:45.458Z,13.00
2022-12-11T10:09:51.566Z,13.27
2022-12-11T10:11:02.188Z,12.88
2022-12-11T10:12:18.790Z,14.68
2022-12-11T10:13:37.338Z,16.17
2022-12-11T10:14:52.031Z,11.40
2022-12-11T10:16:00.381Z,12.02
2022-12-11T10:17:09.874Z,14.60
2022-12-11T10:18:14.775Z,14.20
2022-12-11T10:19:20.310Z,13.40
2022-12-11T10:20:24.407Z,12.05
2022-12-11T10:21:26.590Z,12.40
2022-12-11T10:22:32.666Z,13.98
2022-12-11T10:23:38.489Z,12.63
2022-12-11T10:26:07.707Z,11.60
2022-12-11T10:27:16.378Z,10.55
2022-12-11T10:28:20.317Z,11.80
2022-12-11T10:29:23.638Z,11.32
2022-12-11T10:30:31.598Z,10.95
2022-12-11T10:31:42.614Z,13.82
2022-12-11T10:32:51.496Z,11.43
2022-12-11T10:33:59.222Z,12.57
2022-12-11T10:35:05.168Z,12.40
2022-12-11T10:36:08.558Z,10.63
2022-12-11T10:37:10.115Z,14.55
2022-12-11T10:38:15.510Z,12.45
2022-12-11T10:39:19.140Z,11.18
2022-12-11T10:40:21.981Z,13.13
2022-12-11T10:41:37.458Z,14.27
2022-12-11T10:42:44.053Z,14.80
2022-12-11T10:43:49.264Z,18.88
2022-12-11T10:45:00.912Z,18.20
2022-12-11T10:46:03.093Z,17.50
2022-12-11T10:47:07.098Z,18.67
2022-12-11T10:48:11.090Z,20.70
2022-12-11T10:49:24.598Z,17.73
2022-12-11T10:50:26.420Z,17.83
2022-12-11T10:51:34.843Z,18.27
2022-12-11T10:52:42.247Z,18.25
2022-12-11T10:53:49.110Z,21.15
2022-12-11T10:54:58.435Z,19.05
2022-12-11T10:56:01.637Z,20.75
2022-12-11T10:57:05.066Z,23.58
2022-12-11T10:58:06.826Z,23.95
2022-12-11T10:59:24.111Z,24.45
2022-12-11T11:00:32.104Z,22.98
2022-12-11T11:01:33.797Z,23.23
2022-12-11T11:02:37.485Z,22.02
2022-12-11T11:03:53.315Z,23.45
2022-12-11T11:04:57.137Z,22.38
2022-12-11T11:06:04.459Z,21.70
2022-12-11T11:07:13.458Z,21.98
2022-12-11T11:08:23.917Z,25.10
2022-12-11T11:09:30.005Z,27.05
2022-12-11T11:10:31.512Z,33.45
2022-12-11T11:11:36.940Z,28.38
2022-12-11T11:12:40.973Z,26.80
2022-12-11T11:13:42.474Z,23.70
2022-12-11T11:14:44.006Z,23.42
2022-12-11T11:15:47.198Z,26.17
2022-12-11T11:16:50.719Z,31.73
2022-12-11T11:17:55.999Z,30.35
2022-12-11T11:18:58.070Z,29.40
2022-12-11T11:20:04.560Z,29.15
2022-12-11T11:21:06.614Z,27.48
2022-12-11T11:22:14.818Z,26.95
2022-12-11T11:23:18.670Z,24.90
2022-12-11T11:24:28.563Z,24.15
2022-12-11T11:25:32.704Z,23.27
2022-12-11T11:27:11.042Z,22.48
2022-12-11T11:27:57.699Z,22.30
2022-12-11T11:28:59.298Z,20.35
2022-12-11T11:30:04.273Z,20.13
2022-12-11T11:31:10.710Z,21.15
2022-12-11T11:32:20.077Z,20.08
2022-12-11T11:33:23.677Z,23.13
2022-12-11T11:34:25.266Z,21.60
2022-12-11T11:35:28.259Z,26.73
2022-12-11T11:36:32.366Z,24.83
2022-12-11T11:37:34.440Z,22.48
2022-12-11T11:38:40.855Z,22.98
2022-12-11T11:39:43.847Z,34.30
2022-12-11T11:40:51.408Z,30.17
2022-12-11T11:42:01.714Z,41.08
2022-12-11T11:43:13.304Z,42.10
2022-12-11T11:44:19.874Z,28.75
2022-12-11T11:45:25.264Z,31.23
2022-12-11T11:46:32.916Z,35.53
2022-12-11T11:47:39.613Z,39.75
2022-12-11T11:48:50.892Z,36.95
2022-12-11T11:50:00.017Z,33.83
2022-12-11T11:51:12.636Z,27.75
2022-12-11T11:52:19.309Z,27.30
2022-12-11T11:53:27.022Z,28.60
2022-12-11T11:54:33.262Z,26.15
2022-12-11T11:55:46.553Z,31.30
2022-12-11T11:56:54.012Z,26.60
2022-12-11T11:58:00.982Z,31.23
2022-12-11T11:59:11.792Z,26.50
2022-12-11T12:00:20.114Z,23.77
2022-12-11T12:01:22.217Z,20.77
2022-12-11T12:02:25.339Z,18.48
2022-12-11T12:03:28.937Z,3.95
2022-12-11T12:04:34.082Z,4.68
2022-12-11T12:05:42.538Z,2.45
2022-12-11T12:12:58.017Z,5.82
2022-12-11T12:14:28.766Z,4.85
2022-12-11T12:15:38.594Z,4.65
2022-12-11T12:16:53.763Z,7.03
2022-12-11T12:18:04.039Z,7.15
2022-12-11T12:19:14.088Z,6.00
2022-12-11T12:20:24.425Z,7.75
2022-12-11T12:21:33.546Z,8.63
2022-12-11T12:22:50.387Z,7.40
2022-12-11T12:24:05.405Z,6.75
2022-12-11T12:25:16.447Z,6.93
2022-12-11T12:26:29.393Z,7.82
2022-12-11T12:27:55.269Z,6.53
2022-12-11T12:29:09.048Z,6.38
2022-12-11T12:30:20.396Z,6.88
2022-12-11T12:31:41.391Z,6.38
2022-12-11T12:33:03.477Z,10.52
2022-12-11T12:34:14.084Z,7.10
2022-12-11T12:35:33.737Z,8.50
2022-12-11T12:36:45.681Z,8.05
2022-12-11T12:37:56.955Z,8.77
2022-12-11T12:39:01.781Z,8.85
2022-12-11T12:40:13.955Z,8.05
2022-12-11T12:41:20.845Z,10.52
2022-12-11T12:42:35.004Z,12.60
2022-12-11T12:44:00.311Z,14.77
2022-12-11T12:45:10.712Z,7.60
2022-12-11T12:46:26.629Z,9.80
2022-12-11T12:47:32.323Z,9.38
2022-12-11T12:48:35.448Z,8.70
2022-12-11T12:49:40.799Z,8.52
2022-12-11T12:50:44.696Z,8.73
2022-12-11T12:51:47.267Z,9.32
2022-12-11T12:52:50.055Z,11.10
2022-12-11T12:53:55.904Z,13.35
2022-12-11T12:55:01.688Z,10.48
2022-12-11T12:56:04.641Z,18.35
2022-12-11T12:57:06.784Z,25.90
2022-12-11T12:58:25.593Z,21.40
2022-12-11T12:59:27.940Z,25.70
2022-12-11T13:00:32.900Z,19.20
2022-12-11T13:01:34.604Z,15.75
2022-12-11T13:02:38.076Z,17.42
2022-12-11T13:03:53.599Z,16.33
2022-12-11T13:04:58.981Z,15.13
2022-12-11T13:06:04.081Z,16.92
2022-12-11T13:07:15.738Z,17.13
2022-12-11T13:08:24.928Z,13.70
2022-12-11T13:09:28.370Z,12.82
2022-12-11T13:10:32.808Z,17.13
2022-12-11T13:11:35.893Z,16.15
2022-12-11T13:12:43.212Z,16.17
2022-12-11T13:13:53.214Z,15.20
2022-12-11T13:14:57.005Z,11.20
2022-12-11T13:16:23.572Z,12.80
2022-12-11T13:17:35.658Z,6.70
2022-12-11T13:18:38.506Z,6.55
2022-12-11T13:19:42.923Z,7.63
2022-12-11T13:20:48.125Z,7.15
2022-12-11T13:21:56.081Z,8.60
2022-12-11T13:23:17.372Z,8.40
2022-12-11T13:24:27.023Z,7.53
2022-12-11T13:25:30.570Z,9.00
2022-12-11T13:26:33.280Z,8.80
2022-12-11T13:27:39.929Z,7.68
2022-12-11T13:28:48.654Z,9.90
2022-12-11T13:29:50.199Z,7.15
2022-12-11T13:31:31.358Z,7.30
2022-12-11T13:32:33.600Z,8.93
2022-12-11T13:33:43.036Z,8.63
2022-12-11T13:34:53.532Z,7.45
2022-12-11T13:36:22.794Z,7.00
2022-12-11T13:37:30.622Z,9.40
2022-12-11T13:38:32.583Z,8.30
2022-12-11T13:39:37.489Z,9.85
2022-12-11T13:40:42.928Z,10.02
2022-12-11T13:41:47.500Z,11.77
2022-12-11T13:43:02.806Z,7.85
2022-12-11T13:44:05.923Z,11.95
2022-12-11T13:45:17.902Z,8.43
2022-12-11T13:46:23.965Z,11.20
2022-12-11T13:47:26.214Z,8.55
2022-12-11T13:48:31.945Z,9.48
2022-12-11T13:49:42.345Z,8.93
2022-12-11T13:50:45.823Z,8.38
2022-12-11T13:51:54.015Z,8.93
2022-12-11T13:52:56.399Z,8.82
2022-12-11T13:54:16.974Z,10.70
2022-12-11T13:55:24.508Z,9.02
2022-12-11T13:56:26.027Z,11.65
2022-12-11T13:57:27.897Z,11.73
2022-12-11T13:58:30.451Z,9.52
2022-12-11T13:59:34.445Z,11.15
2022-12-11T14:00:39.303Z,12.68
2022-12-11T14:01:40.980Z,12.90
2022-12-11T14:02:42.660Z,9.45
2022-12-11T14:03:53.761Z,10.77
2022-12-11T14:04:58.558Z,10.60
2022-12-11T14:06:02.753Z,8.35